BDR003 LGSK-LYTV
Flight info
| Callsign | BDR003 |
|---|---|
| Flight time | 0h 55m |
| Altitude | 38000 |
| Route | TSL UN130 TALAS DCT MAVAR/N0323F180 Y400 POD |
| Aircraft | B38M/M-SDE1FGHILORVWXY/HB1 |
Departure
| Time | 2026-04-22 00:45 |
|---|---|
| Airport | Skiathos Island National Airport (LGSK) |
Arrival
| Time | 2026-04-22 01:41 |
|---|---|
| Airport | Tivat Airport (LYTV) |
| Time | Latitude | Longitude | Altitude | Speed | Heading |
|---|---|---|---|---|---|
| 2026-04-22 00:40 | 39.17799 | 23.50319 | 43 ft | 0 kts | 288° |
| 2026-04-22 00:41 | 39.17799 | 23.50318 | 43 ft | 0 kts | 288° |
| 2026-04-22 00:41 | 39.17797 | 23.50273 | 44 ft | 9 kts | 229° |
| 2026-04-22 00:41 | 39.17723 | 23.50259 | 42 ft | 4 kts | 165° |
| 2026-04-22 00:42 | 39.17712 | 23.50276 | 42 ft | 5 kts | 120° |
| 2026-04-22 00:42 | 39.17660 | 23.50340 | 43 ft | 13 kts | 181° |
| 2026-04-22 00:42 | 39.17546 | 23.50284 | 38 ft | 26 kts | 200° |
| 2026-04-22 00:42 | 39.17347 | 23.50196 | 30 ft | 33 kts | 198° |
| 2026-04-22 00:43 | 39.17183 | 23.50123 | 26 ft | 23 kts | 199° |
| 2026-04-22 00:43 | 39.17066 | 23.50055 | 21 ft | 8 kts | 220° |
| 2026-04-22 00:43 | 39.17010 | 23.50035 | 20 ft | 8 kts | 142° |
| 2026-04-22 00:43 | 39.17008 | 23.50052 | 18 ft | 1 kts | 31° |
| 2026-04-22 00:44 | 39.17014 | 23.50053 | 20 ft | 2 kts | 9° |
| 2026-04-22 00:44 | 39.17029 | 23.50056 | 19 ft | 3 kts | 13° |
| 2026-04-22 00:44 | 39.17059 | 23.50068 | 21 ft | 0 kts | 19° |
| 2026-04-22 00:44 | 39.17088 | 23.50081 | 24 ft | 18 kts | 19° |
| 2026-04-22 00:45 | 39.17531 | 23.50278 | 37 ft | 114 kts | 19° |
| 2026-04-22 00:45 | 39.18507 | 23.50703 | 363 ft | 161 kts | 18° |
| 2026-04-22 00:45 | 39.19606 | 23.51150 | 1535 ft | 160 kts | 19° |
| 2026-04-22 00:45 | 39.20764 | 23.51620 | 2270 ft | 190 kts | 18° |
| 2026-04-22 00:46 | 39.22099 | 23.52171 | 3104 ft | 205 kts | 18° |
| 2026-04-22 00:46 | 39.23577 | 23.52549 | 3773 ft | 234 kts | 356° |
| 2026-04-22 00:46 | 39.25186 | 23.51931 | 4442 ft | 257 kts | 332° |
| 2026-04-22 00:46 | 39.26764 | 23.50910 | 5700 ft | 255 kts | 334° |
| 2026-04-22 00:47 | 39.28378 | 23.50114 | 7122 ft | 251 kts | 336° |
| 2026-04-22 00:47 | 39.30096 | 23.49356 | 7822 ft | 274 kts | 339° |
| 2026-04-22 00:47 | 39.31916 | 23.48598 | 8995 ft | 275 kts | 338° |
| 2026-04-22 00:47 | 39.33742 | 23.47826 | 10177 ft | 278 kts | 337° |
| 2026-04-22 00:48 | 39.35631 | 23.47024 | 10930 ft | 295 kts | 338° |
| 2026-04-22 00:48 | 39.37647 | 23.46169 | 11564 ft | 313 kts | 338° |
| 2026-04-22 00:48 | 39.39759 | 23.45271 | 12332 ft | 325 kts | 338° |
| 2026-04-22 00:48 | 39.41921 | 23.44347 | 13344 ft | 328 kts | 337° |
| 2026-04-22 00:49 | 39.44101 | 23.43413 | 14241 ft | 333 kts | 337° |
| 2026-04-22 00:49 | 39.46313 | 23.42464 | 15123 ft | 336 kts | 337° |
| 2026-04-22 00:49 | 39.48542 | 23.41506 | 15995 ft | 339 kts | 337° |
| 2026-04-22 00:49 | 39.50789 | 23.40540 | 16837 ft | 342 kts | 337° |
| 2026-04-22 00:50 | 39.53061 | 23.39563 | 17670 ft | 346 kts | 337° |
| 2026-04-22 00:50 | 39.55353 | 23.38576 | 18446 ft | 349 kts | 336° |
| 2026-04-22 00:50 | 39.57671 | 23.37577 | 19136 ft | 353 kts | 336° |
| 2026-04-22 00:50 | 39.60013 | 23.36568 | 19820 ft | 356 kts | 336° |
| 2026-04-22 00:51 | 39.62371 | 23.35550 | 20519 ft | 359 kts | 336° |
| 2026-04-22 00:51 | 39.64749 | 23.34523 | 21207 ft | 361 kts | 336° |
| 2026-04-22 00:51 | 39.67141 | 23.33489 | 21877 ft | 364 kts | 336° |
| 2026-04-22 00:51 | 39.69558 | 23.32444 | 22543 ft | 367 kts | 336° |
| 2026-04-22 00:52 | 39.71986 | 23.31393 | 23200 ft | 370 kts | 336° |
| 2026-04-22 00:52 | 39.74441 | 23.30329 | 23795 ft | 373 kts | 336° |
| 2026-04-22 00:52 | 39.76913 | 23.29258 | 24317 ft | 376 kts | 336° |
| 2026-04-22 00:52 | 39.79402 | 23.28178 | 24861 ft | 379 kts | 336° |
| 2026-04-22 00:53 | 39.81913 | 23.27087 | 25325 ft | 383 kts | 336° |
| 2026-04-22 00:53 | 39.84452 | 23.25984 | 25828 ft | 386 kts | 336° |
| 2026-04-22 00:53 | 39.87008 | 23.24872 | 26338 ft | 388 kts | 336° |
| 2026-04-22 00:53 | 39.89577 | 23.23754 | 26820 ft | 391 kts | 336° |
| 2026-04-22 00:54 | 39.92162 | 23.22628 | 27307 ft | 394 kts | 336° |
| 2026-04-22 00:54 | 39.94767 | 23.21492 | 27781 ft | 396 kts | 336° |
| 2026-04-22 00:54 | 39.96504 | 23.20734 | 28089 ft | 398 kts | 336° |
| 2026-04-22 00:54 | 40.00037 | 23.19192 | 28697 ft | 402 kts | 336° |
| 2026-04-22 00:55 | 40.01799 | 23.18422 | 29005 ft | 404 kts | 336° |
| 2026-04-22 00:55 | 40.04470 | 23.17253 | 29431 ft | 407 kts | 336° |
| 2026-04-22 00:55 | 40.09872 | 23.14888 | 30252 ft | 412 kts | 336° |
| 2026-04-22 00:56 | 40.12594 | 23.13695 | 30622 ft | 414 kts | 336° |
| 2026-04-22 00:56 | 40.15333 | 23.12493 | 30998 ft | 416 kts | 336° |
| 2026-04-22 00:56 | 40.18086 | 23.11284 | 31361 ft | 418 kts | 336° |
| 2026-04-22 00:56 | 40.20852 | 23.10068 | 31726 ft | 420 kts | 336° |
| 2026-04-22 00:57 | 40.23626 | 23.08847 | 32125 ft | 421 kts | 336° |
| 2026-04-22 00:57 | 40.26410 | 23.07621 | 32518 ft | 423 kts | 336° |
| 2026-04-22 00:57 | 40.29198 | 23.06393 | 32988 ft | 422 kts | 335° |
| 2026-04-22 00:57 | 40.31974 | 23.05168 | 33505 ft | 420 kts | 335° |
| 2026-04-22 00:58 | 40.34739 | 23.03947 | 33997 ft | 419 kts | 335° |
| 2026-04-22 00:58 | 40.37493 | 23.02730 | 34389 ft | 418 kts | 335° |
| 2026-04-22 00:58 | 40.40249 | 23.01511 | 34748 ft | 418 kts | 335° |
| 2026-04-22 00:58 | 40.42996 | 23.00265 | 35105 ft | 416 kts | 332° |
| 2026-04-22 00:59 | 40.45442 | 22.98366 | 35465 ft | 404 kts | 315° |
| 2026-04-22 00:59 | 40.47365 | 22.95712 | 35797 ft | 401 kts | 307° |
| 2026-04-22 00:59 | 40.49160 | 22.92901 | 36072 ft | 402 kts | 307° |
| 2026-04-22 00:59 | 40.50915 | 22.90041 | 36390 ft | 402 kts | 306° |
| 2026-04-22 01:00 | 40.52644 | 22.87158 | 36712 ft | 402 kts | 306° |
| 2026-04-22 01:00 | 40.54363 | 22.84255 | 37027 ft | 402 kts | 305° |
| 2026-04-22 01:00 | 40.56074 | 22.81340 | 37334 ft | 402 kts | 305° |
| 2026-04-22 01:00 | 40.57779 | 22.78422 | 37630 ft | 403 kts | 305° |
| 2026-04-22 01:01 | 40.59484 | 22.75498 | 37927 ft | 403 kts | 305° |
| 2026-04-22 01:01 | 40.61169 | 22.72604 | 37988 ft | 404 kts | 305° |
| 2026-04-22 01:01 | 40.64567 | 22.66759 | 37971 ft | 401 kts | 305° |
| 2026-04-22 01:02 | 40.67956 | 22.60920 | 37971 ft | 401 kts | 305° |
| 2026-04-22 01:02 | 40.71339 | 22.55079 | 37974 ft | 401 kts | 305° |
| 2026-04-22 01:03 | 40.74727 | 22.49218 | 37974 ft | 401 kts | 305° |
| 2026-04-22 01:03 | 40.78110 | 22.43354 | 37994 ft | 402 kts | 304° |
| 2026-04-22 01:04 | 40.81501 | 22.37470 | 37978 ft | 404 kts | 304° |
| 2026-04-22 01:04 | 40.84899 | 22.31561 | 37975 ft | 404 kts | 304° |
| 2026-04-22 01:05 | 40.88292 | 22.25647 | 37991 ft | 404 kts | 304° |
| 2026-04-22 01:05 | 40.91680 | 22.19732 | 37980 ft | 404 kts | 304° |
| 2026-04-22 01:06 | 40.95069 | 22.13805 | 38016 ft | 404 kts | 304° |
| 2026-04-22 01:06 | 40.98441 | 22.07893 | 38005 ft | 401 kts | 304° |
| 2026-04-22 01:07 | 41.01797 | 22.02001 | 38017 ft | 401 kts | 304° |
| 2026-04-22 01:07 | 41.05151 | 21.96100 | 38030 ft | 401 kts | 304° |
| 2026-04-22 01:08 | 41.08338 | 21.90049 | 38012 ft | 398 kts | 298° |
| 2026-04-22 01:08 | 41.09736 | 21.86885 | 38118 ft | 400 kts | 298° |
| 2026-04-22 01:08 | 41.11143 | 21.83698 | 38048 ft | 400 kts | 298° |
| 2026-04-22 01:09 | 41.13932 | 21.77321 | 38052 ft | 400 kts | 298° |
| 2026-04-22 01:09 | 41.16717 | 21.70926 | 38046 ft | 400 kts | 298° |
| 2026-04-22 01:10 | 41.19495 | 21.64529 | 38047 ft | 400 kts | 298° |
| 2026-04-22 01:10 | 41.22272 | 21.58123 | 38057 ft | 401 kts | 298° |
| 2026-04-22 01:11 | 41.25043 | 21.51716 | 38045 ft | 400 kts | 298° |
| 2026-04-22 01:11 | 41.27795 | 21.45341 | 38045 ft | 400 kts | 298° |
| 2026-04-22 01:12 | 41.30578 | 21.38879 | 38045 ft | 400 kts | 298° |
| 2026-04-22 01:12 | 41.33317 | 21.32504 | 38051 ft | 400 kts | 298° |
| 2026-04-22 01:13 | 41.36090 | 21.26039 | 38047 ft | 400 kts | 298° |
| 2026-04-22 01:13 | 41.38827 | 21.19643 | 38059 ft | 400 kts | 298° |
| 2026-04-22 01:14 | 41.41577 | 21.13203 | 38070 ft | 399 kts | 298° |
| 2026-04-22 01:14 | 41.44317 | 21.06774 | 38050 ft | 398 kts | 298° |
| 2026-04-22 01:15 | 41.47049 | 21.00348 | 38085 ft | 398 kts | 298° |
| 2026-04-22 01:15 | 41.49773 | 20.93926 | 38062 ft | 397 kts | 298° |
| 2026-04-22 01:16 | 41.52486 | 20.87520 | 37900 ft | 395 kts | 298° |
| 2026-04-22 01:16 | 41.53838 | 20.84319 | 37106 ft | 396 kts | 298° |
| 2026-04-22 01:16 | 41.55182 | 20.81136 | 36601 ft | 390 kts | 297° |
| 2026-04-22 01:17 | 41.56503 | 20.78005 | 36140 ft | 385 kts | 297° |
| 2026-04-22 01:17 | 41.57814 | 20.74893 | 35454 ft | 384 kts | 297° |
| 2026-04-22 01:17 | 41.59125 | 20.71777 | 34669 ft | 386 kts | 297° |
| 2026-04-22 01:17 | 41.60445 | 20.68638 | 33853 ft | 388 kts | 297° |
| 2026-04-22 01:18 | 41.61762 | 20.65504 | 33091 ft | 385 kts | 297° |
| 2026-04-22 01:18 | 41.63058 | 20.62416 | 32592 ft | 378 kts | 296° |
| 2026-04-22 01:18 | 41.64334 | 20.59374 | 32106 ft | 372 kts | 296° |
| 2026-04-22 01:18 | 41.65588 | 20.56382 | 31508 ft | 366 kts | 296° |
| 2026-04-22 01:19 | 41.66831 | 20.53441 | 31056 ft | 360 kts | 298° |
| 2026-04-22 01:19 | 41.68188 | 20.50628 | 30531 ft | 358 kts | 299° |
| 2026-04-22 01:19 | 41.69527 | 20.47840 | 30017 ft | 355 kts | 299° |
| 2026-04-22 01:19 | 41.70847 | 20.45073 | 29426 ft | 350 kts | 298° |
| 2026-04-22 01:20 | 41.72144 | 20.42344 | 28959 ft | 346 kts | 299° |
| 2026-04-22 01:20 | 41.73425 | 20.39644 | 28490 ft | 341 kts | 299° |
| 2026-04-22 01:20 | 41.74698 | 20.36954 | 28024 ft | 345 kts | 299° |
| 2026-04-22 01:20 | 41.75991 | 20.34223 | 27546 ft | 349 kts | 299° |
| 2026-04-22 01:21 | 41.77294 | 20.31466 | 27041 ft | 351 kts | 299° |
| 2026-04-22 01:21 | 41.78599 | 20.28702 | 26632 ft | 350 kts | 299° |
| 2026-04-22 01:21 | 41.79899 | 20.25948 | 26139 ft | 348 kts | 299° |
| 2026-04-22 01:21 | 41.81173 | 20.23244 | 25700 ft | 347 kts | 299° |
| 2026-04-22 01:22 | 41.82470 | 20.20490 | 25240 ft | 343 kts | 299° |
| 2026-04-22 01:22 | 41.83721 | 20.17831 | 24760 ft | 340 kts | 299° |
| 2026-04-22 01:22 | 41.84976 | 20.15160 | 24319 ft | 336 kts | 299° |
| 2026-04-22 01:22 | 41.86218 | 20.12517 | 23875 ft | 333 kts | 299° |
| 2026-04-22 01:23 | 41.87447 | 20.09898 | 23438 ft | 330 kts | 299° |
| 2026-04-22 01:23 | 41.88665 | 20.07300 | 22944 ft | 328 kts | 299° |
| 2026-04-22 01:23 | 41.89874 | 20.04720 | 22520 ft | 324 kts | 298° |
| 2026-04-22 01:23 | 41.91069 | 20.02167 | 22107 ft | 321 kts | 298° |
| 2026-04-22 01:24 | 41.92249 | 19.99646 | 21720 ft | 317 kts | 298° |
| 2026-04-22 01:24 | 41.93432 | 19.97110 | 21296 ft | 325 kts | 298° |
| 2026-04-22 01:24 | 41.94638 | 19.94527 | 20896 ft | 329 kts | 298° |
| 2026-04-22 01:24 | 41.95860 | 19.91908 | 20516 ft | 332 kts | 298° |
| 2026-04-22 01:25 | 41.97087 | 19.89274 | 20108 ft | 333 kts | 298° |
| 2026-04-22 01:25 | 41.98319 | 19.86629 | 19714 ft | 334 kts | 298° |
| 2026-04-22 01:25 | 41.99555 | 19.83979 | 19300 ft | 335 kts | 298° |
| 2026-04-22 01:25 | 42.00786 | 19.81326 | 18923 ft | 335 kts | 298° |
| 2026-04-22 01:26 | 42.02019 | 19.78669 | 18552 ft | 333 kts | 298° |
| 2026-04-22 01:26 | 42.03242 | 19.76035 | 18141 ft | 331 kts | 298° |
| 2026-04-22 01:26 | 42.04450 | 19.73429 | 17739 ft | 326 kts | 298° |
| 2026-04-22 01:26 | 42.05647 | 19.70847 | 17327 ft | 323 kts | 298° |
| 2026-04-22 01:27 | 42.06822 | 19.68307 | 16968 ft | 319 kts | 298° |
| 2026-04-22 01:27 | 42.07986 | 19.65791 | 16597 ft | 314 kts | 298° |
| 2026-04-22 01:27 | 42.09112 | 19.63289 | 16086 ft | 313 kts | 294° |
| 2026-04-22 01:27 | 42.09831 | 19.60552 | 15360 ft | 307 kts | 279° |
| 2026-04-22 01:28 | 42.10270 | 19.57761 | 14687 ft | 303 kts | 281° |
| 2026-04-22 01:28 | 42.10742 | 19.55021 | 14036 ft | 298 kts | 282° |
| 2026-04-22 01:28 | 42.11218 | 19.52319 | 13373 ft | 294 kts | 282° |
| 2026-04-22 01:28 | 42.11690 | 19.49677 | 12738 ft | 295 kts | 282° |
| 2026-04-22 01:29 | 42.12179 | 19.46973 | 12237 ft | 300 kts | 283° |
| 2026-04-22 01:29 | 42.12677 | 19.44227 | 11836 ft | 303 kts | 283° |
| 2026-04-22 01:29 | 42.13177 | 19.41472 | 11480 ft | 304 kts | 283° |
| 2026-04-22 01:29 | 42.13678 | 19.38709 | 11096 ft | 303 kts | 283° |
| 2026-04-22 01:30 | 42.14175 | 19.35968 | 10786 ft | 298 kts | 283° |
| 2026-04-22 01:30 | 42.14656 | 19.33304 | 10632 ft | 288 kts | 283° |
| 2026-04-22 01:30 | 42.15121 | 19.30726 | 10488 ft | 278 kts | 284° |
| 2026-04-22 01:30 | 42.15572 | 19.28230 | 10164 ft | 270 kts | 284° |
| 2026-04-22 01:31 | 42.16013 | 19.25781 | 9591 ft | 268 kts | 284° |
| 2026-04-22 01:31 | 42.16449 | 19.23358 | 9002 ft | 265 kts | 284° |
| 2026-04-22 01:31 | 42.16882 | 19.20946 | 8424 ft | 264 kts | 284° |
| 2026-04-22 01:31 | 42.17311 | 19.18556 | 7861 ft | 261 kts | 285° |
| 2026-04-22 01:32 | 42.17734 | 19.16194 | 7440 ft | 256 kts | 284° |
| 2026-04-22 01:32 | 42.18145 | 19.13902 | 7099 ft | 248 kts | 285° |
| 2026-04-22 01:32 | 42.18543 | 19.11678 | 6792 ft | 241 kts | 285° |
| 2026-04-22 01:32 | 42.18938 | 19.09465 | 6548 ft | 243 kts | 285° |
| 2026-04-22 01:33 | 42.19328 | 19.07283 | 6439 ft | 236 kts | 285° |
| 2026-04-22 01:33 | 42.19707 | 19.05163 | 6312 ft | 229 kts | 285° |
| 2026-04-22 01:33 | 42.20075 | 19.03100 | 6160 ft | 222 kts | 286° |
| 2026-04-22 01:33 | 42.20688 | 19.01242 | 5905 ft | 216 kts | 308° |
| 2026-04-22 01:34 | 42.21495 | 18.99574 | 5686 ft | 212 kts | 296° |
| 2026-04-22 01:34 | 42.22009 | 18.97701 | 5375 ft | 213 kts | 290° |
| 2026-04-22 01:34 | 42.22460 | 18.95803 | 5049 ft | 210 kts | 290° |
| 2026-04-22 01:34 | 42.22880 | 18.93997 | 4958 ft | 194 kts | 290° |
| 2026-04-22 01:35 | 42.23284 | 18.92317 | 4935 ft | 185 kts | 296° |
| 2026-04-22 01:35 | 42.24022 | 18.90969 | 4983 ft | 174 kts | 318° |
| 2026-04-22 01:35 | 42.24887 | 18.89840 | 5059 ft | 172 kts | 319° |
| 2026-04-22 01:35 | 42.25735 | 18.88701 | 5024 ft | 173 kts | 314° |
| 2026-04-22 01:36 | 42.26497 | 18.87440 | 4793 ft | 172 kts | 312° |
| 2026-04-22 01:36 | 42.27280 | 18.86157 | 4308 ft | 184 kts | 311° |
| 2026-04-22 01:36 | 42.28094 | 18.84805 | 3798 ft | 186 kts | 311° |
| 2026-04-22 01:36 | 42.28919 | 18.83472 | 3245 ft | 184 kts | 314° |
| 2026-04-22 01:37 | 42.29810 | 18.82319 | 2786 ft | 170 kts | 323° |
| 2026-04-22 01:37 | 42.30701 | 18.81384 | 2475 ft | 153 kts | 326° |
| 2026-04-22 01:37 | 42.31580 | 18.80594 | 2186 ft | 154 kts | 329° |
| 2026-04-22 01:37 | 42.32474 | 18.79827 | 2012 ft | 152 kts | 329° |
| 2026-04-22 01:38 | 42.33408 | 18.79100 | 1900 ft | 156 kts | 332° |
| 2026-04-22 01:38 | 42.34333 | 18.78444 | 1656 ft | 142 kts | 333° |
| 2026-04-22 01:38 | 42.35166 | 18.77810 | 1366 ft | 139 kts | 329° |
| 2026-04-22 01:38 | 42.35997 | 18.77103 | 1234 ft | 140 kts | 329° |
| 2026-04-22 01:39 | 42.36792 | 18.76394 | 902 ft | 136 kts | 326° |
| 2026-04-22 01:39 | 42.37564 | 18.75644 | 601 ft | 137 kts | 323° |
| 2026-04-22 01:39 | 42.38299 | 18.74855 | 410 ft | 132 kts | 321° |
| 2026-04-22 01:39 | 42.38989 | 18.74053 | 212 ft | 129 kts | 319° |
| 2026-04-22 01:40 | 42.39679 | 18.73248 | 52 ft | 131 kts | 319° |
| 2026-04-22 01:40 | 42.40263 | 18.72565 | 25 ft | 76 kts | 319° |
| 2026-04-22 01:40 | 42.40568 | 18.72208 | 21 ft | 57 kts | 319° |
| 2026-04-22 01:40 | 42.40858 | 18.71867 | 21 ft | 53 kts | 319° |
| 2026-04-22 01:41 | 42.40954 | 18.71794 | 22 ft | 7 kts | 41° |
| 2026-04-22 01:41 | 42.40988 | 18.71843 | 21 ft | 6 kts | 44° |
| 2026-04-22 01:41 | 42.41030 | 18.71845 | 24 ft | 7 kts | 320° |
| 2026-04-22 01:41 | 42.41070 | 18.71798 | 21 ft | 6 kts | 319° |
| 2026-04-22 01:42 | 42.41101 | 18.71768 | 23 ft | 6 kts | 346° |
| 2026-04-22 01:42 | 42.41147 | 18.71776 | 21 ft | 7 kts | 348° |
| 2026-04-22 01:42 | 42.41170 | 18.71742 | 20 ft | 2 kts | 271° |